Aviation Digital Data Service (ADDS)

Output produced by METARs form (1633 UTC 01 April 2015)
found at http://aviationweather.gov/adds/metars/
 
METAR text: KBFM 011553Z 12007KT 10SM SCT029 22/17 A3013 RMK AO2 RAB06E15 SLP203 P0000 T02220172
Conditions at: KBFM (MOBILE/BROOKLEY , AL, US) observed 1553 UTC 01 April 2015
Temperature: 22.2°C (72°F)
Dewpoint: 17.2°C (63°F) [RH = 73%]
Pressure (altimeter): 30.13 inches Hg (1020.4 mb)
[Sea-level pressure: 1020.3 mb]
Winds: from the ESE (120 degrees) at 8 MPH (7 knots; 3.6 m/s)
Visibility: 10 or more miles (16+ km)
Ceiling: at least 12,000 feet AGL
Clouds: scattered clouds at 2900 feet AGL
Weather: no significant weather observed at this time